Řízení letového provozu České republiky  
Aktualizace dat:  29.07.2021 11:17:30 UTC English version
   METEO Zobrazení stránky:  29.07.2021 11:18:25 UTC  
vysvětlivky
METAR EDDB 291050Z 23016KT 210V270 9999 FEW045 24/11 Q1010 TEMPO 23015G25KT=
METAR EDDC 291050Z 24016G27KT 210V280 CAVOK 22/11 Q1013 NOSIG=
METAR EDDE 291050Z 23018KT 9999 FEW048 21/11 Q1012 TEMPO 23015G25KT=
METAR EDDF 291050Z 23020KT 200V260 9999 SCT048 22/10 Q1014 NOSIG=
METAR EDDM 291050Z 28008KT 240V310 9999 SCT043 23/13 Q1016 NOSIG=
METAR EDDN 291050Z 25015KT 220V280 9999 FEW045 23/12 Q1015 NOSIG=
METAR EDDP 291050Z 24022KT CAVOK 24/10 Q1011 TEMPO 23020G30KT=
METAR EDQM 291050Z 23014KT 200V270 9999 SCT037 19/12 Q1015=
METAR EPBY 291100Z 25013KT 9999 FEW045TCU 24/13 Q1009=
METAR EPGD 291100Z 25014KT CAVOK 24/10 Q1008=
METAR EPKK 291100Z 26009KT 230V290 9999 SCT037 25/16 Q1014=
METAR EPKT 291100Z 24010KT 200V280 9999 FEW040 24/14 Q1014=
METAR EPLL 291100Z 25013KT 9999 SCT038 25/15 Q1012=
METAR EPPO 291100Z 25013KT 200V270 9999 FEW043TCU 25/13 Q1011=
METAR EPRZ 291100Z 27010KT 220V320 9999 FEW033 24/16 Q1013=
METAR EPWA 291100Z 26012KT 9999 SCT043 25/16 Q1011 NOSIG=
METAR EPWR 291100Z 27011KT 240V300 CAVOK 24/13 Q1013=
METAR LHBP 291100Z 31010KT CAVOK 28/14 Q1014 NOSIG=
METAR LHSM 291045Z AUTO 36005KT 290V080 9000 NCD 29/13 Q1015 NOSIG=
SPECI LKBC 291105Z AUTO 26014G27KT 9999 BKN059 23/12 Q1015=
METAR LKCV 291100Z 28014KT CAVOK 24/12 Q1014 NOSIG RMK BLU BLU=
METAR LKKB 291100Z 24012KT CAVOK 24/11 Q1014 NOSIG RMK BLU BLU=
METAR LKKU NIL
METAR LKKV 291100Z 26011KT 230V310 9999 SCT044 20/10 Q1015 RMK REG QNH 1013=
METAR LKLN 291100Z AUTO 26008KT 200V300 9999 BKN049 22/12 Q1015=
METAR LKMT 291100Z 23011KT 200V270 9999 FEW043 26/16 Q1014 NOSIG RMK REG QNH 1013=
METAR LKNA 291100Z 27011KT CAVOK 23/12 Q1016 NOSIG RMK BLU BLU=
METAR LKPD 291100Z 26018G26KT CAVOK 25/10 Q1014 NOSIG RMK BLU BLU=
METAR LKPJ 291100Z AUTO 26009KT 230V290 9999 FEW054/// 27/12 Q1014=
METAR LKPR 291100Z 23014KT CAVOK 24/11 Q1014 NOSIG RMK REG QNH 1013=
METAR LKTB 291100Z 26006KT 200V320 9999 BKN049 26/13 Q1014 NOSIG RMK REG QNH 1013=
METAR LKVO 291100Z 25013KT CAVOK 24/10 Q1014=
METAR LOWI 291050Z 07004KT 350V120 9999 FEW040 23/14 Q1016 NOSIG=
METAR LOWL 291050Z VRB03KT 9999 FEW033 24/16 Q1016 NOSIG=
METAR LOWS 291050Z 05006KT 010V130 9999 FEW045 24/15 Q1016 NOSIG=
METAR LOWW 291050Z 33007KT 300V360 9999 FEW050 26/14 Q1015 NOSIG=
METAR LZIB 291100Z VRB05KT CAVOK 27/14 Q1015 NOSIG=
METAR LZKZ 291100Z 04007KT 340V060 CAVOK 27/18 Q1013 NOSIG=
METAR LZMC 291100Z 33004KT 9999 SCT046 27/14 Q1016=
METAR LZPP 291100Z 29005KT 220V020 9999 FEW038 27/16 Q1014=
METAR LZSL 291100Z 35008KT CAVOK 28/13 Q1014=
METAR LZTT 291100Z 05008KT 9999 FEW016 BKN026 22/17 Q1015 NOSIG=
METAR LZZI 291100Z 23005KT 160V280 9999 SCT046 26/14 Q1014=